• Join FlightAware (Why Join?)
  • Login
  • US Flag 
11:43AM EDT


 

Airport Tracker/Info


-or-


 

Live Flight TrackerFlight Track Log ✈ JLG821 ✈ 25-Apr-2013 ✈ KCLT - KRDU

Flight Track Log - Related Links

Times and Time Zones

All times are in EDT time to prevent confusion due to time zone crossing. See the JLG821 flight status page for this flight to view local times or setup timezone preferences in your user account.

Time Position Orientation Groundspeed Altitude Reporting Facility
EDT Latitude Longitude Course Direction KTS MPH feet Rate Location/Type
06:57PM 35.2306 -80.9392 69° East 141 162 1,600  Level Atlanta Center
06:58PM 35.2447 -80.9183 50° Northeast 140 161 3,300 1,860 Climbing Atlanta Center
06:59PM 35.2369 -80.8678 101° East 160 184 4,800 840 Climbing Atlanta Center
07:00PM 35.2311 -80.7944 96° East 228 262 5,100 600 Climbing Atlanta Center
07:01PM 35.2311 -80.7256 90° East 232 267 6,000 1,440 Climbing Atlanta Center
07:02PM 35.2333 -80.6492 88° East 192 221 8,100 1,740 Climbing Atlanta Center
07:03PM 35.3373 -80.5588 69° East  Level Estimated
07:03PM 35.2314 -80.5808 92° East 206 237 9,800  Level Atlanta Center
07:04PM 35.2272 -80.5047 94° East 229 264 11,000 540 Climbing Atlanta Center
07:05PM 35.2244 -80.4158 92° East 278 320 11,000  Level Atlanta Center
07:06PM 35.2214 -80.3117 92° East 295 339 11,000  Level Atlanta Center
07:08PM 35.2192 -80.1125 91° East 311 358 11,000 -60 Level Washington Center
07:09PM 35.2164 -80.0258 92° East 301 346 10,900 -60 Descending Washington Center
07:10PM 35.2119 -79.9164 93° East 296 341 10,900  Level Washington Center
07:11PM 35.2150 -79.8300 87° East 283 326 10,900  Level Washington Center
07:12PM 35.2144 -79.7283 90° East 272 313 10,900  Level Washington Center
07:13PM 35.2153 -79.6469 89° East 272 313 10,900  Level Washington Center
07:14PM 35.2228 -79.5456 85° East 272 313 10,900  Level Washington Center
07:15PM 35.2825 -79.5053 29° Northeast 232 267 10,900  Level Washington Center
07:16PM 35.3547 -79.4681 23° Northeast 243 280 10,900 60 Level Washington Center
07:17PM 35.4011 -79.4475 20° North 257 296 11,000  Climbing Washington Center
07:17PM 35.4181 -79.4406 18° North 254 292 10,900  Descending Washington Center
07:18PM 35.4689 -79.4175 20° North 261 300 11,000  Climbing Washington Center
07:18PM 35.4903 -79.4006 33° Northeast 254 292 10,900 -120 Descending Washington Center
07:19PM 35.5292 -79.3642 37° Northeast 266 306 10,900 -240 Level Washington Center
07:19PM 35.5400 -79.3494 48° Northeast 259 298 10,700 -900 Descending Washington Center
07:20PM 35.5811 -79.3053 41° Northeast 262 302 10,000 -1,020 Descending Washington Center
07:20PM 35.5942 -79.2856 51° Northeast 254 292 9,700 -1,620 Descending Washington Center
07:21PM 35.6272 -79.2258 56° Northeast 268 308 8,400 -1,620 Descending Washington Center
07:21PM 35.6403 -79.2058 51° Northeast 265 305 8,100 -1,320 Descending Washington Center
07:22PM 35.6692 -79.1536 56° Northeast 260 299 7,100 -1,200 Descending Washington Center
07:22PM 35.6758 -79.1358 65° Northeast 259 298 6,900 -1,080 Descending Washington Center
07:23PM 35.7075 -79.0556 64° Northeast 231 266 5,700 -1,140 Descending Washington Center
07:24PM 35.7342 -78.9953 61° Northeast 219 252 4,700 -1,080 Descending Washington Center
07:25PM 35.7650 -78.9403 55° Northeast 204 235 3,600 -1,080 Descending Washington Center
07:26PM 35.8039 -78.8933 44° Northeast 193 222 2,600 -1,020 Descending Washington Center
07:27PM 35.8322 -78.8508 51° Northeast 123 142 1,500 -840 Descending Washington Center
07:28PM 35.8600 -78.8214 41° Northeast 122 140 800 -720 Descending Washington Center
07:30PM 35.8667 -78.7833 51° Northeast  Level FlightAware Approximate
07:37PM 35.8776 -78.7875 51° Northeast  Level Estimated